createdAt,value
2023-02-19T00:01:16.056Z,11.50
2023-02-19T00:03:47.957Z,13.60
2023-02-19T00:06:14.857Z,12.68
2023-02-19T00:08:41.707Z,6.55
2023-02-19T00:11:12.755Z,9.57
2023-02-19T00:13:41.144Z,6.68
2023-02-19T00:16:21.621Z,6.45
2023-02-19T00:18:48.587Z,7.40
2023-02-19T00:21:15.791Z,9.20
2023-02-19T00:23:42.842Z,10.68
2023-02-19T00:26:18.267Z,14.07
2023-02-19T00:28:47.830Z,13.38
2023-02-19T00:31:29.482Z,8.48
2023-02-19T00:33:59.230Z,13.13
2023-02-19T00:36:26.773Z,10.60
2023-02-19T00:38:53.851Z,10.50
2023-02-19T00:41:21.887Z,15.80
2023-02-19T00:43:55.598Z,11.10
2023-02-19T00:48:53.642Z,10.50
2023-02-19T00:51:21.647Z,8.13
2023-02-19T00:53:48.580Z,12.05
2023-02-19T00:56:15.681Z,11.57
2023-02-19T00:58:42.602Z,7.00
2023-02-19T01:01:09.916Z,13.50
2023-02-19T01:03:37.259Z,7.78
2023-02-19T01:06:04.637Z,7.90
2023-02-19T01:08:32.158Z,10.52
2023-02-19T01:11:01.126Z,7.15
2023-02-19T01:13:28.507Z,17.90
2023-02-19T01:16:16.139Z,13.73
2023-02-19T01:18:43.313Z,11.70
2023-02-19T01:21:13.471Z,11.63
2023-02-19T01:23:40.699Z,12.02
2023-02-19T01:26:08.679Z,10.77
2023-02-19T01:28:35.826Z,8.65
2023-02-19T01:31:07.123Z,10.73
2023-02-19T01:33:34.618Z,8.23
2023-02-19T01:36:05.761Z,7.55
2023-02-19T01:38:32.816Z,10.95
2023-02-19T01:41:01.826Z,6.05
2023-02-19T01:43:28.910Z,8.75
2023-02-19T01:45:55.782Z,7.78
2023-02-19T01:48:29.328Z,12.07
2023-02-19T01:51:03.815Z,9.18
2023-02-19T01:53:32.037Z,11.13
2023-02-19T01:55:58.936Z,8.88
2023-02-19T01:58:26.565Z,12.32
2023-02-19T02:00:53.542Z,19.60
2023-02-19T02:03:20.413Z,12.80
2023-02-19T02:06:10.686Z,9.63
2023-02-19T02:08:56.162Z,10.30
2023-02-19T02:11:23.428Z,7.88
2023-02-19T02:13:50.404Z,7.00
2023-02-19T02:16:29.487Z,9.38
2023-02-19T02:19:04.036Z,7.93
2023-02-19T02:21:40.494Z,9.95
2023-02-19T02:24:29.036Z,10.07
2023-02-19T02:27:04.688Z,11.07
2023-02-19T02:29:50.746Z,7.22
2023-02-19T02:32:21.677Z,12.05
2023-02-19T02:34:51.425Z,9.25
2023-02-19T02:37:18.298Z,8.02
2023-02-19T02:39:45.999Z,12.98
2023-02-19T02:42:27.758Z,8.10
2023-02-19T02:45:37.908Z,11.30
2023-02-19T02:48:35.586Z,8.95
2023-02-19T02:51:20.834Z,10.15
2023-02-19T02:54:16.341Z,6.22
2023-02-19T02:56:44.432Z,11.68
2023-02-19T02:59:12.528Z,9.70
2023-02-19T03:02:14.374Z,5.40
2023-02-19T03:05:13.481Z,7.65
2023-02-19T03:07:48.288Z,8.82
2023-02-19T03:10:41.407Z,4.65
2023-02-19T03:13:32.561Z,7.15
2023-02-19T03:16:21.173Z,9.02
2023-02-19T03:19:08.503Z,9.02
2023-02-19T03:21:36.288Z,7.80
2023-02-19T03:24:25.793Z,8.10
2023-02-19T03:26:54.139Z,9.98
2023-02-19T03:29:24.190Z,11.35
2023-02-19T03:31:58.000Z,9.20
2023-02-19T03:34:36.654Z,7.07
2023-02-19T03:37:11.662Z,8.63
2023-02-19T03:42:16.416Z,9.45
2023-02-19T03:45:04.470Z,5.32
2023-02-19T03:47:35.821Z,8.77
2023-02-19T03:50:07.950Z,10.18
2023-02-19T03:52:39.580Z,8.02
2023-02-19T03:55:07.505Z,9.80
2023-02-19T03:57:53.658Z,5.13
2023-02-19T04:00:27.443Z,8.00
2023-02-19T04:05:26.280Z,7.45
2023-02-19T04:07:55.174Z,4.80
2023-02-19T04:10:27.717Z,9.38
2023-02-19T04:12:57.817Z,8.00
2023-02-19T04:15:27.757Z,8.30
2023-02-19T04:17:56.573Z,9.52
2023-02-19T04:20:24.138Z,6.82
2023-02-19T04:22:51.216Z,5.47
2023-02-19T04:25:18.103Z,6.47
2023-02-19T04:27:45.464Z,2.47
2023-02-19T04:30:13.288Z,9.50
2023-02-19T04:32:40.116Z,6.13
2023-02-19T04:35:07.069Z,4.57
2023-02-19T04:37:33.852Z,7.38
2023-02-19T04:40:00.685Z,7.30
2023-02-19T04:42:27.528Z,7.95
2023-02-19T04:44:54.340Z,4.43
2023-02-19T04:47:21.216Z,5.45
2023-02-19T04:49:48.051Z,6.07
2023-02-19T04:52:14.922Z,6.93
2023-02-19T04:54:41.772Z,9.32
2023-02-19T04:57:08.541Z,7.65
2023-02-19T04:59:35.431Z,4.30
2023-02-19T05:02:02.270Z,4.78
2023-02-19T05:04:29.195Z,4.60
2023-02-19T05:06:56.505Z,6.35
2023-02-19T05:09:23.544Z,3.80
2023-02-19T05:11:50.371Z,3.40
2023-02-19T05:14:17.262Z,3.63
2023-02-19T05:16:44.091Z,5.85
2023-02-19T05:19:14.051Z,5.45
2023-02-19T05:21:41.057Z,3.05
2023-02-19T05:24:08.147Z,3.40
2023-02-19T05:26:35.110Z,5.78
2023-02-19T05:29:02.056Z,7.22
2023-02-19T05:31:28.961Z,2.88
2023-02-19T05:33:56.377Z,5.68
2023-02-19T05:36:23.297Z,2.25
2023-02-19T05:38:56.546Z,4.82
2023-02-19T05:41:24.789Z,3.20
2023-02-19T05:43:51.845Z,4.97
2023-02-19T05:46:20.592Z,5.45
2023-02-19T05:48:48.246Z,4.97
2023-02-19T05:51:16.568Z,3.67
2023-02-19T05:53:44.852Z,2.70
2023-02-19T05:56:35.638Z,6.18
2023-02-19T05:59:23.734Z,4.78
2023-02-19T06:01:51.362Z,6.03
2023-02-19T06:04:19.961Z,4.47
2023-02-19T06:06:47.273Z,3.15
2023-02-19T06:09:14.214Z,4.85
2023-02-19T06:11:41.151Z,3.58
2023-02-19T06:14:08.046Z,11.77
2023-02-19T06:16:34.884Z,6.47
2023-02-19T06:19:05.114Z,3.50
2023-02-19T06:21:32.028Z,2.85
2023-02-19T06:23:58.866Z,4.72
2023-02-19T06:26:25.656Z,7.75
2023-02-19T06:28:52.870Z,5.60
2023-02-19T06:31:20.524Z,4.90
2023-02-19T06:33:47.646Z,3.90
2023-02-19T06:36:16.151Z,5.50
2023-02-19T06:38:43.238Z,7.15
2023-02-19T06:41:10.571Z,3.15
2023-02-19T06:43:37.649Z,3.80
2023-02-19T06:46:05.544Z,3.72
2023-02-19T06:48:32.963Z,5.90
2023-02-19T06:50:59.914Z,5.82
2023-02-19T06:53:26.749Z,5.88
2023-02-19T06:56:00.881Z,3.28
2023-02-19T06:58:27.830Z,3.78
2023-02-19T07:00:54.724Z,3.75
2023-02-19T07:03:21.760Z,3.88
2023-02-19T07:05:48.735Z,6.40
2023-02-19T07:08:17.332Z,5.47
2023-02-19T07:10:53.733Z,2.88
2023-02-19T07:13:20.567Z,4.55
2023-02-19T07:15:47.404Z,4.63
2023-02-19T07:18:14.285Z,4.20
2023-02-19T07:20:41.130Z,5.25
2023-02-19T07:23:07.930Z,5.78
2023-02-19T07:25:34.897Z,5.05
2023-02-19T07:28:02.791Z,1.88
2023-02-19T07:30:29.703Z,4.28
2023-02-19T07:32:56.524Z,5.72
2023-02-19T07:35:23.468Z,6.07
2023-02-19T07:37:50.401Z,5.25
2023-02-19T07:40:17.349Z,4.43
2023-02-19T07:42:44.169Z,3.20
2023-02-19T07:45:11.071Z,4.03
2023-02-19T07:47:38.031Z,5.85
2023-02-19T07:50:05.152Z,4.68
2023-02-19T07:52:33.341Z,2.97
2023-02-19T07:55:00.222Z,4.82
2023-02-19T07:57:28.974Z,4.10
2023-02-19T07:59:55.830Z,2.50
2023-02-19T08:02:41.093Z,3.97
2023-02-19T08:05:08.362Z,4.18
2023-02-19T08:07:35.461Z,3.25
2023-02-19T08:10:20.869Z,4.22
2023-02-19T08:13:19.188Z,5.90
2023-02-19T08:15:49.652Z,5.55
2023-02-19T08:18:17.410Z,4.63
2023-02-19T08:20:44.333Z,3.08
2023-02-19T08:23:11.643Z,2.88
2023-02-19T08:25:39.016Z,5.00
2023-02-19T08:28:06.053Z,3.25
2023-02-19T08:30:33.120Z,4.40
2023-02-19T08:33:02.166Z,3.13
2023-02-19T08:35:29.265Z,5.03
2023-02-19T08:37:57.279Z,4.85
2023-02-19T08:40:24.689Z,4.65
2023-02-19T08:42:51.542Z,7.78
2023-02-19T08:45:18.398Z,5.22
2023-02-19T08:47:45.352Z,3.47
2023-02-19T08:50:12.388Z,2.17
2023-02-19T08:52:39.238Z,8.38
2023-02-19T08:55:06.395Z,2.70
2023-02-19T08:57:37.483Z,4.63
2023-02-19T09:00:05.418Z,2.95
2023-02-19T09:02:32.260Z,2.63
2023-02-19T09:04:59.167Z,5.00
2023-02-19T09:07:26.010Z,5.05
2023-02-19T09:09:53.085Z,3.38
2023-02-19T09:12:19.997Z,5.43
2023-02-19T09:14:46.971Z,6.20
2023-02-19T09:17:13.893Z,2.55
2023-02-19T09:19:40.698Z,4.90
2023-02-19T09:22:07.526Z,2.45
2023-02-19T09:24:34.401Z,6.50
2023-02-19T09:27:01.238Z,2.13
2023-02-19T09:29:28.440Z,4.78
2023-02-19T09:31:59.088Z,3.33
2023-02-19T09:34:27.104Z,2.75
2023-02-19T09:36:54.203Z,4.97
2023-02-19T09:39:21.277Z,3.22
2023-02-19T09:41:52.874Z,4.40
2023-02-19T09:44:40.426Z,2.75
2023-02-19T09:47:18.187Z,1.33
2023-02-19T09:49:50.234Z,3.33
2023-02-19T09:52:26.942Z,1.17
2023-02-19T09:54:57.652Z,3.47
2023-02-19T09:57:25.770Z,2.28
2023-02-19T09:59:55.193Z,1.92
2023-02-19T10:02:23.574Z,3.28
2023-02-19T10:04:53.582Z,2.22
2023-02-19T10:07:43.937Z,2.72
2023-02-19T10:10:13.804Z,2.13
2023-02-19T10:12:43.489Z,2.05
2023-02-19T10:15:25.816Z,1.45
2023-02-19T10:17:52.741Z,1.88
2023-02-19T10:20:24.620Z,2.97
2023-02-19T10:22:57.334Z,2.78
2023-02-19T10:25:24.168Z,1.93
2023-02-19T10:27:50.966Z,1.05
2023-02-19T10:30:24.142Z,1.17
2023-02-19T10:33:13.617Z,1.52
2023-02-19T10:36:04.050Z,5.07
2023-02-19T10:38:39.350Z,1.17
2023-02-19T10:41:07.987Z,3.13
2023-02-19T10:43:40.769Z,1.38
2023-02-19T10:46:24.600Z,4.15
2023-02-19T10:49:31.331Z,1.30
2023-02-19T10:52:03.190Z,1.45
2023-02-19T10:54:34.844Z,2.25
2023-02-19T10:57:21.336Z,1.95
2023-02-19T10:59:59.344Z,1.05
2023-02-19T11:02:26.416Z,3.33
2023-02-19T11:05:23.303Z,2.55
2023-02-19T11:07:56.803Z,1.75
2023-02-19T11:10:46.882Z,2.35
2023-02-19T11:13:15.570Z,1.23
2023-02-19T11:15:42.410Z,2.63
2023-02-19T11:18:12.273Z,0.90
2023-02-19T11:20:49.824Z,5.50
2023-02-19T11:23:19.536Z,1.88
2023-02-19T11:25:47.155Z,2.83
2023-02-19T11:28:17.868Z,1.15
2023-02-19T11:30:54.715Z,1.00
2023-02-19T11:33:27.683Z,1.38
2023-02-19T11:36:23.544Z,2.22
2023-02-19T11:38:50.348Z,1.58
2023-02-19T11:41:26.109Z,1.23
2023-02-19T11:43:59.756Z,5.25
2023-02-19T11:46:32.976Z,3.30
2023-02-19T11:49:21.505Z,1.93
2023-02-19T11:52:00.638Z,0.88
2023-02-19T11:54:39.221Z,3.72
2023-02-19T11:57:28.201Z,1.70
2023-02-19T12:00:27.966Z,1.08
2023-02-19T12:03:06.727Z,1.63
2023-02-19T12:05:45.366Z,1.77
2023-02-19T12:08:34.576Z,1.20
2023-02-19T12:11:22.903Z,0.40
2023-02-19T12:14:18.738Z,2.15
2023-02-19T12:16:55.222Z,9.63
2023-02-19T12:19:50.953Z,11.45
2023-02-19T12:22:35.587Z,9.57
2023-02-19T12:25:25.289Z,20.60
2023-02-19T12:28:29.911Z,5.13
2023-02-19T12:31:27.807Z,10.82
2023-02-19T12:34:00.779Z,9.35
2023-02-19T12:36:46.665Z,10.50
2023-02-19T12:39:13.483Z,4.15
2023-02-19T12:41:50.214Z,5.32
2023-02-19T12:44:37.739Z,2.25
2023-02-19T12:47:06.510Z,11.95
2023-02-19T12:49:37.351Z,17.55
2023-02-19T12:52:08.244Z,3.03
2023-02-19T12:54:35.819Z,1.90
2023-02-19T12:57:03.447Z,1.52
2023-02-19T12:59:35.153Z,4.68
2023-02-19T13:02:17.094Z,3.22
2023-02-19T13:04:48.317Z,3.00
2023-02-19T13:07:19.356Z,6.45
2023-02-19T13:09:56.374Z,2.90
2023-02-19T13:12:26.039Z,3.33
2023-02-19T13:14:59.045Z,1.30
2023-02-19T13:17:34.523Z,1.92
2023-02-19T13:20:29.350Z,1.48
2023-02-19T13:23:41.365Z,1.08
2023-02-19T13:26:23.126Z,1.15
2023-02-19T13:28:53.891Z,1.05
2023-02-19T13:31:39.817Z,1.48
2023-02-19T13:34:20.615Z,0.73
2023-02-19T13:36:48.783Z,1.55
2023-02-19T13:41:51.830Z,0.60
2023-02-19T13:44:29.184Z,0.63
2023-02-19T13:46:56.063Z,1.27
2023-02-19T13:49:28.902Z,1.83
2023-02-19T13:52:01.706Z,0.57
2023-02-19T13:54:29.946Z,1.08
2023-02-19T13:57:22.273Z,1.38
2023-02-19T13:59:49.846Z,0.90
2023-02-19T14:02:23.084Z,1.75
2023-02-19T14:05:00.029Z,3.08
2023-02-19T14:07:26.865Z,1.55
2023-02-19T14:09:54.075Z,1.92
2023-02-19T14:12:21.919Z,1.75
2023-02-19T14:14:50.297Z,3.90
2023-02-19T14:17:33.190Z,2.47
2023-02-19T14:20:42.440Z,1.20
2023-02-19T14:23:18.134Z,2.83
2023-02-19T14:25:52.807Z,2.33
2023-02-19T14:28:38.073Z,2.58
2023-02-19T14:31:33.250Z,1.73
2023-02-19T14:34:13.464Z,2.28
2023-02-19T14:36:52.656Z,3.55
2023-02-19T14:39:32.821Z,2.55
2023-02-19T14:42:01.150Z,2.45
2023-02-19T14:44:37.368Z,1.80
2023-02-19T14:47:13.705Z,3.28
2023-02-19T14:50:00.945Z,2.75
2023-02-19T14:52:41.031Z,1.85
2023-02-19T14:55:17.060Z,1.73
2023-02-19T14:57:48.117Z,1.33
2023-02-19T15:00:29.087Z,1.60
2023-02-19T15:02:57.563Z,2.65
2023-02-19T15:05:36.675Z,1.35
2023-02-19T15:08:07.549Z,1.38
2023-02-19T15:10:34.675Z,1.83
2023-02-19T15:13:05.960Z,1.15
2023-02-19T15:15:42.710Z,3.35
2023-02-19T15:18:18.121Z,2.75
2023-02-19T15:20:45.135Z,3.78
2023-02-19T15:23:12.427Z,1.35
2023-02-19T15:25:39.485Z,1.45
2023-02-19T15:28:41.910Z,2.80
2023-02-19T15:31:14.198Z,1.95
2023-02-19T15:33:49.351Z,2.45
2023-02-19T15:36:16.636Z,2.47
2023-02-19T15:38:44.440Z,1.75
2023-02-19T15:41:21.393Z,3.40
2023-02-19T15:43:53.896Z,2.80
2023-02-19T15:46:24.925Z,3.05
2023-02-19T15:49:01.127Z,2.00
2023-02-19T15:51:41.484Z,2.25
2023-02-19T15:54:27.230Z,2.20
2023-02-19T15:56:54.471Z,1.90
2023-02-19T15:59:34.170Z,3.03
2023-02-19T16:02:01.684Z,2.45
2023-02-19T16:04:28.622Z,1.52
2023-02-19T16:07:00.501Z,2.20
2023-02-19T16:09:38.059Z,2.17
2023-02-19T16:12:22.474Z,1.65
2023-02-19T16:14:51.006Z,2.33
2023-02-19T16:17:23.152Z,1.08
2023-02-19T16:19:57.422Z,1.75
2023-02-19T16:22:25.785Z,4.35
2023-02-19T16:24:54.336Z,1.55
2023-02-19T16:27:34.817Z,2.03
2023-02-19T16:30:16.284Z,1.98
2023-02-19T16:32:45.280Z,2.08
2023-02-19T16:35:39.756Z,1.65
2023-02-19T16:38:13.896Z,2.47
2023-02-19T16:40:53.189Z,4.38
2023-02-19T16:43:31.003Z,3.03
2023-02-19T16:45:58.515Z,2.72
2023-02-19T16:48:25.479Z,1.40
2023-02-19T16:50:52.311Z,1.40
2023-02-19T16:53:24.914Z,2.22
2023-02-19T16:55:52.443Z,3.03
2023-02-19T16:58:19.412Z,1.73
2023-02-19T17:00:46.269Z,3.53
2023-02-19T17:03:19.959Z,3.00
2023-02-19T17:05:47.024Z,3.65
2023-02-19T17:08:34.416Z,2.25
2023-02-19T17:11:02.453Z,2.95
2023-02-19T17:13:29.799Z,3.53
2023-02-19T17:15:57.089Z,2.67
2023-02-19T17:18:24.093Z,2.65
2023-02-19T17:21:01.745Z,2.85
2023-02-19T17:23:28.619Z,3.75
2023-02-19T17:25:55.658Z,2.47
2023-02-19T17:28:22.476Z,4.22
2023-02-19T17:30:49.336Z,7.82
2023-02-19T17:33:16.221Z,10.60
2023-02-19T17:35:44.859Z,4.45
2023-02-19T17:38:15.398Z,5.80
2023-02-19T17:40:42.299Z,23.85
2023-02-19T17:43:09.085Z,5.93
2023-02-19T17:45:35.937Z,7.93
2023-02-19T17:48:02.944Z,12.00
2023-02-19T17:50:31.335Z,8.27
2023-02-19T17:52:58.264Z,8.52
2023-02-19T17:55:26.044Z,9.95
2023-02-19T17:57:53.042Z,8.50
2023-02-19T18:00:22.979Z,7.15
2023-02-19T18:02:49.943Z,3.38
2023-02-19T18:05:16.944Z,4.00
2023-02-19T18:07:44.205Z,4.32
2023-02-19T18:10:11.225Z,3.63
2023-02-19T18:12:38.388Z,2.42
2023-02-19T18:15:06.725Z,7.55
2023-02-19T18:17:34.171Z,3.15
2023-02-19T18:20:01.188Z,4.57
2023-02-19T18:22:28.149Z,6.15
2023-02-19T18:24:55.272Z,3.63
2023-02-19T18:27:23.555Z,6.82
2023-02-19T18:29:51.961Z,4.00
2023-02-19T18:32:20.028Z,5.50
2023-02-19T18:34:54.476Z,3.92
2023-02-19T18:37:21.718Z,5.38
2023-02-19T18:39:48.543Z,6.47
2023-02-19T18:42:22.798Z,4.95
2023-02-19T18:44:52.731Z,5.57
2023-02-19T18:47:20.456Z,4.18
2023-02-19T18:49:48.317Z,7.80
2023-02-19T18:52:15.911Z,4.90
2023-02-19T18:54:43.329Z,7.25
2023-02-19T18:57:10.318Z,6.20
2023-02-19T18:59:37.498Z,6.55
2023-02-19T19:02:06.403Z,8.13
2023-02-19T19:04:33.581Z,7.72
2023-02-19T19:07:00.666Z,7.82
2023-02-19T19:09:27.536Z,5.25
2023-02-19T19:11:54.526Z,4.57
2023-02-19T19:14:21.438Z,7.78
2023-02-19T19:16:48.322Z,13.50
2023-02-19T19:19:15.762Z,11.63
2023-02-19T19:21:42.774Z,8.00
2023-02-19T19:24:09.789Z,8.68
2023-02-19T19:26:36.759Z,6.47
2023-02-19T19:29:04.467Z,5.22
2023-02-19T19:31:35.393Z,8.10
2023-02-19T19:34:02.600Z,6.22
2023-02-19T19:36:29.795Z,7.22
2023-02-19T19:38:56.629Z,8.10
2023-02-19T19:41:23.500Z,7.15
2023-02-19T19:43:50.310Z,5.90
2023-02-19T19:46:19.259Z,6.20
2023-02-19T19:48:49.785Z,6.85
2023-02-19T19:51:16.834Z,6.03
2023-02-19T19:53:44.618Z,7.95
2023-02-19T19:56:11.483Z,6.68
2023-02-19T19:58:38.442Z,7.90
2023-02-19T20:01:06.067Z,6.80
2023-02-19T20:03:33.815Z,6.40
2023-02-19T20:06:00.659Z,6.65
2023-02-19T20:08:27.563Z,8.02
2023-02-19T20:10:54.540Z,5.13
2023-02-19T20:13:26.412Z,8.23
2023-02-19T20:15:53.395Z,8.02
2023-02-19T20:18:21.528Z,7.05
2023-02-19T20:20:48.430Z,7.53
2023-02-19T20:23:15.483Z,5.00
2023-02-19T20:25:42.346Z,6.45
2023-02-19T20:28:09.209Z,5.78
2023-02-19T20:30:37.204Z,9.30
2023-02-19T20:33:04.617Z,11.48
2023-02-19T20:35:31.847Z,7.88
2023-02-19T20:37:58.795Z,8.05
2023-02-19T20:40:27.828Z,7.70
2023-02-19T20:42:54.726Z,6.45
2023-02-19T20:45:22.033Z,6.80
2023-02-19T20:47:49.582Z,11.35
2023-02-19T20:50:18.244Z,7.88
2023-02-19T20:52:46.086Z,7.47
2023-02-19T20:55:12.916Z,6.18
2023-02-19T20:57:39.937Z,8.38
2023-02-19T21:00:08.256Z,6.70
2023-02-19T21:02:35.218Z,6.60
2023-02-19T21:05:02.678Z,6.63
2023-02-19T21:07:30.526Z,7.40
2023-02-19T21:09:57.395Z,7.68
2023-02-19T21:12:24.239Z,7.47
2023-02-19T21:14:51.132Z,10.75
2023-02-19T21:17:17.991Z,7.95
2023-02-19T21:19:45.354Z,7.55
2023-02-19T21:22:12.625Z,6.80
2023-02-19T21:24:39.513Z,6.43
2023-02-19T21:27:06.362Z,7.75
2023-02-19T21:29:33.170Z,6.10
2023-02-19T21:32:01.242Z,9.27
2023-02-19T21:34:28.979Z,8.57
2023-02-19T21:36:56.562Z,7.82
2023-02-19T21:39:24.696Z,6.15
2023-02-19T21:41:51.638Z,5.65
2023-02-19T21:44:19.136Z,8.57
2023-02-19T21:46:46.110Z,5.80
2023-02-19T21:49:13.261Z,9.85
2023-02-19T21:51:41.387Z,6.40
2023-02-19T21:54:08.924Z,5.63
2023-02-19T21:56:36.476Z,3.65
2023-02-19T21:59:03.865Z,5.05
2023-02-19T22:01:35.213Z,5.80
2023-02-19T22:04:02.267Z,6.72
2023-02-19T22:06:29.812Z,4.93
2023-02-19T22:08:56.901Z,7.63
2023-02-19T22:11:23.758Z,6.15
2023-02-19T22:13:50.882Z,8.52
2023-02-19T22:16:18.254Z,6.72
2023-02-19T22:18:48.829Z,10.23
2023-02-19T22:21:16.098Z,7.10
2023-02-19T22:23:44.953Z,6.15
2023-02-19T22:26:18.663Z,7.20
2023-02-19T22:31:12.904Z,4.57
2023-02-19T22:33:39.832Z,6.35
2023-02-19T22:36:22.318Z,7.75
2023-02-19T22:38:49.563Z,8.13
2023-02-19T22:41:17.132Z,6.35
2023-02-19T22:43:43.987Z,5.13
2023-02-19T22:46:15.044Z,4.18
2023-02-19T22:48:42.539Z,4.78
2023-02-19T22:51:13.046Z,5.90
2023-02-19T22:53:58.581Z,4.45
2023-02-19T22:56:26.656Z,6.00
2023-02-19T22:58:54.475Z,4.13
2023-02-19T23:01:21.406Z,5.38
2023-02-19T23:04:06.388Z,7.13
2023-02-19T23:06:34.144Z,5.72
2023-02-19T23:09:06.005Z,4.82
2023-02-19T23:11:35.415Z,7.78
2023-02-19T23:14:02.337Z,6.00
2023-02-19T23:16:29.392Z,3.88
2023-02-19T23:18:56.333Z,7.47
2023-02-19T23:21:23.355Z,6.50
2023-02-19T23:23:50.239Z,7.95
2023-02-19T23:26:17.170Z,4.15
2023-02-19T23:28:44.184Z,5.65
2023-02-19T23:31:11.390Z,6.25
2023-02-19T23:33:38.622Z,6.20
2023-02-19T23:36:05.950Z,5.22
2023-02-19T23:38:32.794Z,4.80
2023-02-19T23:40:59.823Z,6.47
2023-02-19T23:43:26.737Z,4.72
2023-02-19T23:45:53.704Z,6.40
2023-02-19T23:48:20.607Z,4.57
2023-02-19T23:50:47.454Z,6.78
2023-02-19T23:53:14.313Z,3.90
2023-02-19T23:55:41.329Z,3.95
2023-02-19T23:58:08.278Z,6.03
